sensor_id;sensor_type;location;lat;lon;timestamp;pressure;altitude;pressure_sealevel;temperature;humidity
21431;BME280;10876;49.038;10.608;2023-03-15T00:00:32;98091.03;;;2.91;100.00
21431;BME280;10876;49.038;10.608;2023-03-15T00:02:59;98099.44;;;2.89;100.00
21431;BME280;10876;49.038;10.608;2023-03-15T00:05:28;98115.94;;;2.83;100.00
21431;BME280;10876;49.038;10.608;2023-03-15T00:07:56;98116.50;;;2.80;100.00
21431;BME280;10876;49.038;10.608;2023-03-15T00:10:22;98124.66;;;2.69;100.00
21431;BME280;10876;49.038;10.608;2023-03-15T00:12:51;98136.53;;;2.68;100.00
21431;BME280;10876;49.038;10.608;2023-03-15T00:15:17;98146.84;;;2.61;100.00
21431;BME280;10876;49.038;10.608;2023-03-15T00:17:44;98159.81;;;2.64;100.00
21431;BME280;10876;49.038;10.608;2023-03-15T00:20:11;97814.41;;;2.56;100.00
21431;BME280;10876;49.038;10.608;2023-03-15T00:22:39;97802.88;;;2.45;100.00
21431;BME280;10876;49.038;10.608;2023-03-15T00:25:06;97801.59;;;2.38;100.00
21431;BME280;10876;49.038;10.608;2023-03-15T00:27:33;97795.34;;;2.37;100.00
21431;BME280;10876;49.038;10.608;2023-03-15T00:30:01;97798.41;;;2.25;100.00
21431;BME280;10876;49.038;10.608;2023-03-15T00:32:28;97801.41;;;2.19;100.00
21431;BME280;10876;49.038;10.608;2023-03-15T00:34:56;97799.59;;;2.09;100.00
21431;BME280;10876;49.038;10.608;2023-03-15T00:37:22;97809.34;;;2.00;100.00
21431;BME280;10876;49.038;10.608;2023-03-15T00:39:50;97821.78;;;1.96;100.00
21431;BME280;10876;49.038;10.608;2023-03-15T00:42:20;97826.66;;;1.89;100.00
21431;BME280;10876;49.038;10.608;2023-03-15T00:44:52;97834.81;;;1.84;100.00
21431;BME280;10876;49.038;10.608;2023-03-15T00:47:21;97829.41;;;1.84;100.00
21431;BME280;10876;49.038;10.608;2023-03-15T00:49:47;97830.22;;;1.79;100.00
21431;BME280;10876;49.038;10.608;2023-03-15T00:52:15;97829.41;;;1.78;100.00
21431;BME280;10876;49.038;10.608;2023-03-15T00:54:41;97843.47;;;1.75;100.00
21431;BME280;10876;49.038;10.608;2023-03-15T00:57:08;97852.38;;;1.71;100.00
21431;BME280;10876;49.038;10.608;2023-03-15T00:59:35;97849.97;;;1.69;100.00
21431;BME280;10876;49.038;10.608;2023-03-15T01:02:03;97858.63;;;1.61;100.00
21431;BME280;10876;49.038;10.608;2023-03-15T01:04:31;97857.53;;;1.57;100.00
21431;BME280;10876;49.038;10.608;2023-03-15T01:06:58;97860.22;;;1.62;100.00
21431;BME280;10876;49.038;10.608;2023-03-15T01:09:25;97857.53;;;1.62;100.00
21431;BME280;10876;49.038;10.608;2023-03-15T01:11:51;97856.72;;;1.62;100.00
21431;BME280;10876;49.038;10.608;2023-03-15T01:14:18;97874.28;;;1.64;100.00
21431;BME280;10876;49.038;10.608;2023-03-15T01:16:45;97879.66;;;1.59;100.00
21431;BME280;10876;49.038;10.608;2023-03-15T01:19:12;97880.47;;;1.54;100.00
21431;BME280;10876;49.038;10.608;2023-03-15T01:21:40;97885.88;;;1.54;100.00
21431;BME280;10876;49.038;10.608;2023-03-15T01:24:11;97901.81;;;1.61;100.00
21431;BME280;10876;49.038;10.608;2023-03-15T01:26:38;97907.75;;;1.58;100.00
21431;BME280;10876;49.038;10.608;2023-03-15T01:29:05;97897.22;;;1.62;100.00
21431;BME280;10876;49.038;10.608;2023-03-15T01:31:31;97899.41;;;1.49;100.00
21431;BME280;10876;49.038;10.608;2023-03-15T01:33:58;97905.34;;;1.46;100.00
21431;BME280;10876;49.038;10.608;2023-03-15T01:36:26;97899.66;;;1.48;100.00
21431;BME280;10876;49.038;10.608;2023-03-15T01:38:54;97899.66;;;1.48;100.00
21431;BME280;10876;49.038;10.608;2023-03-15T01:41:21;97896.41;;;1.51;100.00
21431;BME280;10876;49.038;10.608;2023-03-15T01:43:50;97901.25;;;1.54;100.00
21431;BME280;10876;49.038;10.608;2023-03-15T01:46:21;97903.44;;;1.52;100.00
21431;BME280;10876;49.038;10.608;2023-03-15T01:48:51;97903.44;;;1.52;100.00
21431;BME280;10876;49.038;10.608;2023-03-15T01:51:23;97915.56;;;1.54;100.00
21431;BME280;10876;49.038;10.608;2023-03-15T01:53:57;97914.19;;;1.57;100.00
21431;BME280;10876;49.038;10.608;2023-03-15T01:56:26;97903.69;;;1.55;100.00
21431;BME280;10876;49.038;10.608;2023-03-15T01:58:55;97906.13;;;1.47;100.00
21431;BME280;10876;49.038;10.608;2023-03-15T02:01:24;97912.59;;;1.51;100.00
21431;BME280;10876;49.038;10.608;2023-03-15T02:03:54;97911.78;;;1.50;100.00
21431;BME280;10876;49.038;10.608;2023-03-15T02:06:25;97914.22;;;1.52;100.00
21431;BME280;10876;49.038;10.608;2023-03-15T02:08:55;97922.03;;;1.48;100.00
21431;BME280;10876;49.038;10.608;2023-03-15T02:11:24;97911.25;;;1.48;100.00
21431;BME280;10876;49.038;10.608;2023-03-15T02:13:53;97917.72;;;1.47;100.00
21431;BME280;10876;49.038;10.608;2023-03-15T02:16:21;97915.28;;;1.46;100.00
21431;BME280;10876;49.038;10.608;2023-03-15T02:18:48;97915.28;;;1.51;100.00
21431;BME280;10876;49.038;10.608;2023-03-15T02:21:25;97916.94;;;1.52;100.00
21431;BME280;10876;49.038;10.608;2023-03-15T02:24:00;97916.38;;;1.50;100.00
21431;BME280;10876;49.038;10.608;2023-03-15T02:26:35;97922.31;;;1.47;100.00
21431;BME280;10876;49.038;10.608;2023-03-15T02:29:07;97927.47;;;1.43;100.00
21431;BME280;10876;49.038;10.608;2023-03-15T02:31:33;97925.56;;;1.44;100.00
21431;BME280;10876;49.038;10.608;2023-03-15T02:34:03;97929.34;;;1.38;100.00
21431;BME280;10876;49.038;10.608;2023-03-15T02:36:31;97927.72;;;1.42;100.00
21431;BME280;10876;49.038;10.608;2023-03-15T02:38:58;97940.13;;;1.43;100.00
21431;BME280;10876;49.038;10.608;2023-03-15T02:41:29;97938.25;;;1.33;100.00
21431;BME280;10876;49.038;10.608;2023-03-15T02:44:01;97945.78;;;1.31;100.00
21431;BME280;10876;49.038;10.608;2023-03-15T02:46:31;97952.00;;;1.21;100.00
21431;BME280;10876;49.038;10.608;2023-03-15T02:48:59;97963.31;;;1.28;100.00
21431;BME280;10876;49.038;10.608;2023-03-15T02:51:27;97966.28;;;1.22;100.00
21431;BME280;10876;49.038;10.608;2023-03-15T02:53:54;97974.66;;;1.15;100.00
21431;BME280;10876;49.038;10.608;2023-03-15T02:56:21;97976.78;;;1.13;100.00
21431;BME280;10876;49.038;10.608;2023-03-15T02:58:49;97983.78;;;1.14;100.00
21431;BME280;10876;49.038;10.608;2023-03-15T03:01:16;97995.13;;;1.01;100.00
21431;BME280;10876;49.038;10.608;2023-03-15T03:03:45;97997.25;;;0.99;100.00
21431;BME280;10876;49.038;10.608;2023-03-15T03:06:13;98001.59;;;1.05;100.00
21431;BME280;10876;49.038;10.608;2023-03-15T03:08:41;98013.69;;;0.97;100.00
21431;BME280;10876;49.038;10.608;2023-03-15T03:11:12;98007.78;;;1.05;100.00
21431;BME280;10876;49.038;10.608;2023-03-15T03:13:39;98019.38;;;1.01;100.00
21431;BME280;10876;49.038;10.608;2023-03-15T03:16:06;98022.06;;;1.01;100.00
21431;BME280;10876;49.038;10.608;2023-03-15T03:18:33;98027.69;;;0.94;100.00
21431;BME280;10876;49.038;10.608;2023-03-15T03:21:04;98027.47;;;1.01;100.00
21431;BME280;10876;49.038;10.608;2023-03-15T03:23:32;98030.69;;;1.03;100.00
21431;BME280;10876;49.038;10.608;2023-03-15T03:25:59;98029.06;;;1.02;100.00
21431;BME280;10876;49.038;10.608;2023-03-15T03:28:28;98039.31;;;1.05;100.00
21431;BME280;10876;49.038;10.608;2023-03-15T03:30:55;98047.41;;;1.00;100.00
21431;BME280;10876;49.038;10.608;2023-03-15T03:33:22;98043.63;;;1.01;100.00
21431;BME280;10876;49.038;10.608;2023-03-15T03:35:49;98052.78;;;1.00;100.00
21431;BME280;10876;49.038;10.608;2023-03-15T03:38:17;98057.66;;;0.98;100.00
21431;BME280;10876;49.038;10.608;2023-03-15T03:40:44;98060.88;;;0.95;100.00
21431;BME280;10876;49.038;10.608;2023-03-15T03:43:11;98063.03;;;0.98;100.00
21431;BME280;10876;49.038;10.608;2023-03-15T03:45:38;98071.94;;;0.98;100.00
21431;BME280;10876;49.038;10.608;2023-03-15T03:48:05;98066.25;;;1.00;100.00
21431;BME280;10876;49.038;10.608;2023-03-15T03:50:31;98061.69;;;1.05;100.00
21431;BME280;10876;49.038;10.608;2023-03-15T03:55:25;98071.97;;;1.03;100.00
21431;BME280;10876;49.038;10.608;2023-03-15T03:57:51;98076.00;;;1.01;100.00
21431;BME280;10876;49.038;10.608;2023-03-15T04:00:18;98076.00;;;1.01;100.00
21431;BME280;10876;49.038;10.608;2023-03-15T04:02:45;98079.22;;;1.03;100.00
21431;BME280;10876;49.038;10.608;2023-03-15T04:05:12;98095.38;;;1.03;100.00
21431;BME280;10876;49.038;10.608;2023-03-15T04:07:39;98100.53;;;1.04;100.00
21431;BME280;10876;49.038;10.608;2023-03-15T04:10:06;98092.16;;;1.06;100.00
21431;BME280;10876;49.038;10.608;2023-03-15T04:12:34;98109.16;;;1.06;100.00
21431;BME280;10876;49.038;10.608;2023-03-15T04:15:01;98113.22;;;1.09;100.00
21431;BME280;10876;49.038;10.608;2023-03-15T04:17:28;98118.88;;;1.07;100.00
21431;BME280;10876;49.038;10.608;2023-03-15T04:19:54;98120.78;;;1.12;100.00
21431;BME280;10876;49.038;10.608;2023-03-15T04:22:22;98124.53;;;1.11;100.00
21431;BME280;10876;49.038;10.608;2023-03-15T04:24:49;98128.31;;;1.10;100.00
21431;BME280;10876;49.038;10.608;2023-03-15T04:27:16;98135.31;;;1.11;100.00
21431;BME280;10876;49.038;10.608;2023-03-15T04:29:44;98126.19;;;1.12;100.00
21431;BME280;10876;49.038;10.608;2023-03-15T04:32:11;98129.94;;;1.11;100.00
21431;BME280;10876;49.038;10.608;2023-03-15T04:34:37;98129.41;;;1.14;100.00
21431;BME280;10876;49.038;10.608;2023-03-15T04:37:04;98136.44;;;1.15;100.00
21431;BME280;10876;49.038;10.608;2023-03-15T04:39:31;98142.09;;;1.19;100.00
21431;BME280;10876;49.038;10.608;2023-03-15T04:41:58;98141.25;;;1.08;100.00
21431;BME280;10876;49.038;10.608;2023-03-15T04:44:25;98155.25;;;1.05;100.00
21431;BME280;10876;49.038;10.608;2023-03-15T04:46:53;98154.19;;;1.11;100.00
21431;BME280;10876;49.038;10.608;2023-03-15T04:49:20;98155.81;;;1.07;100.00
21431;BME280;10876;49.038;10.608;2023-03-15T04:51:46;98166.06;;;1.10;100.00
21431;BME280;10876;49.038;10.608;2023-03-15T04:54:13;98165.00;;;1.16;100.00
21431;BME280;10876;49.038;10.608;2023-03-15T04:56:40;98169.88;;;1.19;100.00
21431;BME280;10876;49.038;10.608;2023-03-15T04:59:07;98169.91;;;1.24;100.00
21431;BME280;10876;49.038;10.608;2023-03-15T05:01:35;98171.00;;;1.23;100.00
21431;BME280;10876;49.038;10.608;2023-03-15T05:04:04;98175.28;;;1.24;100.00
21431;BME280;10876;49.038;10.608;2023-03-15T05:06:30;98178.25;;;1.18;100.00
21431;BME280;10876;49.038;10.608;2023-03-15T05:08:57;98179.06;;;1.18;100.00
21431;BME280;10876;49.038;10.608;2023-03-15T05:11:24;98177.41;;;1.12;100.00
21431;BME280;10876;49.038;10.608;2023-03-15T05:13:51;98184.97;;;1.15;100.00
21431;BME280;10876;49.038;10.608;2023-03-15T05:16:17;98180.38;;;1.16;100.00
21431;BME280;10876;49.038;10.608;2023-03-15T05:18:44;98180.13;;;1.22;100.00
21431;BME280;10876;49.038;10.608;2023-03-15T05:21:12;98188.78;;;1.24;100.00
21431;BME280;10876;49.038;10.608;2023-03-15T05:23:39;98183.63;;;1.23;100.00
21431;BME280;10876;49.038;10.608;2023-03-15T05:26:06;98188.22;;;1.22;100.00
21431;BME280;10876;49.038;10.608;2023-03-15T05:28:33;98191.44;;;1.19;100.00
21431;BME280;10876;49.038;10.608;2023-03-15T05:30:59;98190.88;;;1.12;100.00
21431;BME280;10876;49.038;10.608;2023-03-15T05:33:27;98200.63;;;1.18;100.00
21431;BME280;10876;49.038;10.608;2023-03-15T05:35:54;98207.06;;;1.17;100.00
21431;BME280;10876;49.038;10.608;2023-03-15T05:38:22;98211.94;;;1.15;100.00
21431;BME280;10876;49.038;10.608;2023-03-15T05:40:51;98213.56;;;1.16;100.00
21431;BME280;10876;49.038;10.608;2023-03-15T05:43:18;98219.53;;;1.23;100.00
21431;BME280;10876;49.038;10.608;2023-03-15T05:45:45;98212.22;;;1.19;100.00
21431;BME280;10876;49.038;10.608;2023-03-15T05:48:13;98214.09;;;1.18;100.00
21431;BME280;10876;49.038;10.608;2023-03-15T05:50:40;98211.41;;;1.18;100.00
21431;BME280;10876;49.038;10.608;2023-03-15T05:53:07;98218.13;;;1.16;100.00
21431;BME280;10876;49.038;10.608;2023-03-15T05:55:35;98224.34;;;1.16;100.00
21431;BME280;10876;49.038;10.608;2023-03-15T05:58:03;98225.94;;;1.17;100.00
21431;BME280;10876;49.038;10.608;2023-03-15T06:00:29;98223.78;;;1.14;100.00
21431;BME280;10876;49.038;10.608;2023-03-15T06:02:56;98220.28;;;1.13;100.00
21431;BME280;10876;49.038;10.608;2023-03-15T06:05:23;98219.47;;;1.13;100.00
21431;BME280;10876;49.038;10.608;2023-03-15T06:07:50;98231.03;;;1.03;100.00
21431;BME280;10876;49.038;10.608;2023-03-15T06:10:16;98238.84;;;1.05;100.00
21431;BME280;10876;49.038;10.608;2023-03-15T06:12:44;98224.81;;;1.08;100.00
21431;BME280;10876;49.038;10.608;2023-03-15T06:15:11;98236.75;;;1.22;100.00
21431;BME280;10876;49.038;10.608;2023-03-15T06:17:38;98229.47;;;1.23;100.00
21431;BME280;10876;49.038;10.608;2023-03-15T06:20:05;98233.53;;;1.25;100.00
21431;BME280;10876;49.038;10.608;2023-03-15T06:22:32;98235.13;;;1.16;100.00
21431;BME280;10876;49.038;10.608;2023-03-15T06:24:59;98235.72;;;1.23;100.00
21431;BME280;10876;49.038;10.608;2023-03-15T06:27:27;98246.25;;;1.30;100.00
21431;BME280;10876;49.038;10.608;2023-03-15T06:29:55;98238.28;;;1.66;100.00
21431;BME280;10876;49.038;10.608;2023-03-15T06:32:22;98227.25;;;1.67;100.00
21431;BME280;10876;49.038;10.608;2023-03-15T06:34:49;98232.63;;;1.62;100.00
21431;BME280;10876;49.038;10.608;2023-03-15T06:37:16;98226.16;;;1.63;100.00
21431;BME280;10876;49.038;10.608;2023-03-15T06:39:42;98235.06;;;1.64;100.00
21431;BME280;10876;49.038;10.608;2023-03-15T06:42:10;98242.94;;;1.75;100.00
21431;BME280;10876;49.038;10.608;2023-03-15T06:44:37;98226.84;;;2.42;100.00
21431;BME280;10876;49.038;10.608;2023-03-15T06:47:06;98219.28;;;2.44;100.00
21431;BME280;10876;49.038;10.608;2023-03-15T06:49:33;98228.44;;;2.17;100.00
21431;BME280;10876;49.038;10.608;2023-03-15T06:52:00;98238.16;;;2.13;100.00
21431;BME280;10876;49.038;10.608;2023-03-15T06:54:26;98251.63;;;1.93;100.00
21431;BME280;10876;49.038;10.608;2023-03-15T06:56:53;98263.50;;;1.92;100.00
21431;BME280;10876;49.038;10.608;2023-03-15T06:59:20;98262.97;;;2.05;100.00
21431;BME280;10876;49.038;10.608;2023-03-15T07:01:47;98267.25;;;1.80;100.00
21431;BME280;10876;49.038;10.608;2023-03-15T07:04:15;98277.25;;;1.90;100.00
21431;BME280;10876;49.038;10.608;2023-03-15T07:06:41;98276.91;;;1.66;100.00
21431;BME280;10876;49.038;10.608;2023-03-15T07:09:09;98288.31;;;1.84;100.00
21431;BME280;10876;49.038;10.608;2023-03-15T07:11:36;98270.91;;;2.78;100.00
21431;BME280;10876;49.038;10.608;2023-03-15T07:14:03;98271.63;;;3.30;100.00
21431;BME280;10876;49.038;10.608;2023-03-15T07:16:31;98284.13;;;3.15;100.00
21431;BME280;10876;49.038;10.608;2023-03-15T07:18:57;98285.44;;;3.28;100.00
21431;BME280;10876;49.038;10.608;2023-03-15T07:21:26;98299.78;;;3.24;100.00
21431;BME280;10876;49.038;10.608;2023-03-15T07:23:52;98313.88;;;3.15;100.00
21431;BME280;10876;49.038;10.608;2023-03-15T07:26:19;98317.84;;;3.49;100.00
21431;BME280;10876;49.038;10.608;2023-03-15T07:28:46;98335.38;;;3.72;100.00
21431;BME280;10876;49.038;10.608;2023-03-15T07:31:13;98353.88;;;3.49;100.00
21431;BME280;10876;49.038;10.608;2023-03-15T07:33:40;98342.34;;;3.98;100.00
21431;BME280;10876;49.038;10.608;2023-03-15T07:36:07;98363.25;;;3.88;100.00
21431;BME280;10876;49.038;10.608;2023-03-15T07:38:36;98376.19;;;4.06;100.00
21431;BME280;10876;49.038;10.608;2023-03-15T07:41:03;98373.19;;;4.18;100.00
21431;BME280;10876;49.038;10.608;2023-03-15T07:43:31;98373.63;;;4.35;100.00
21431;BME280;10876;49.038;10.608;2023-03-15T07:45:58;98397.03;;;4.16;100.00
21431;BME280;10876;49.038;10.608;2023-03-15T07:48:25;98393.97;;;4.33;100.00
21431;BME280;10876;49.038;10.608;2023-03-15T07:50:53;98404.66;;;3.98;100.00
21431;BME280;10876;49.038;10.608;2023-03-15T07:53:20;98401.34;;;4.22;100.00
21431;BME280;10876;49.038;10.608;2023-03-15T07:55:48;98408.41;;;4.13;100.00
21431;BME280;10876;49.038;10.608;2023-03-15T07:58:15;98407.81;;;4.26;100.00
21431;BME280;10876;49.038;10.608;2023-03-15T08:00:42;98407.53;;;4.27;100.00
21431;BME280;10876;49.038;10.608;2023-03-15T08:03:09;98405.34;;;4.35;100.00
21431;BME280;10876;49.038;10.608;2023-03-15T08:05:36;98405.53;;;4.48;100.00
21431;BME280;10876;49.038;10.608;2023-03-15T08:08:03;98441.13;;;4.32;100.00
21431;BME280;10876;49.038;10.608;2023-03-15T08:10:30;98442.69;;;5.03;100.00
21431;BME280;10876;49.038;10.608;2023-03-15T08:12:58;98465.66;;;4.66;100.00
21431;BME280;10876;49.038;10.608;2023-03-15T08:15:24;98487.50;;;4.25;100.00
21431;BME280;10876;49.038;10.608;2023-03-15T08:17:51;98498.25;;;4.56;100.00
21431;BME280;10876;49.038;10.608;2023-03-15T08:20:18;98497.03;;;4.92;100.00
21431;BME280;10876;49.038;10.608;2023-03-15T08:22:46;98517.75;;;4.68;100.00
21431;BME280;10876;49.038;10.608;2023-03-15T08:25:15;98525.88;;;4.73;100.00
21431;BME280;10876;49.038;10.608;2023-03-15T08:27:42;98551.41;;;4.62;100.00
21431;BME280;10876;49.038;10.608;2023-03-15T08:30:12;98564.41;;;4.70;100.00
21431;BME280;10876;49.038;10.608;2023-03-15T08:32:39;98568.00;;;5.15;100.00
21431;BME280;10876;49.038;10.608;2023-03-15T08:35:07;98582.97;;;5.12;100.00
21431;BME280;10876;49.038;10.608;2023-03-15T08:37:34;98582.19;;;5.51;100.00
21431;BME280;10876;49.038;10.608;2023-03-15T08:40:01;98598.28;;;5.42;100.00
21431;BME280;10876;49.038;10.608;2023-03-15T08:42:33;98609.69;;;5.39;100.00
21431;BME280;10876;49.038;10.608;2023-03-15T08:45:00;98638.69;;;4.84;100.00
21431;BME280;10876;49.038;10.608;2023-03-15T08:47:28;98631.47;;;5.29;100.00
21431;BME280;10876;49.038;10.608;2023-03-15T08:49:55;98626.28;;;5.82;100.00
21431;BME280;10876;49.038;10.608;2023-03-15T08:52:21;98652.91;;;5.85;100.00
21431;BME280;10876;49.038;10.608;2023-03-15T08:54:48;98688.53;;;5.79;100.00
21431;BME280;10876;49.038;10.608;2023-03-15T08:57:15;98721.00;;;5.50;100.00
21431;BME280;10876;49.038;10.608;2023-03-15T08:59:42;98750.06;;;6.14;100.00
21431;BME280;10876;49.038;10.608;2023-03-15T09:02:10;98757.69;;;6.12;100.00
21431;BME280;10876;49.038;10.608;2023-03-15T09:04:38;98770.31;;;5.82;100.00
21431;BME280;10876;49.038;10.608;2023-03-15T09:07:04;98754.13;;;6.61;100.00
21431;BME280;10876;49.038;10.608;2023-03-15T09:09:31;98774.47;;;5.64;100.00
21431;BME280;10876;49.038;10.608;2023-03-15T09:11:59;98779.97;;;6.19;100.00
21431;BME280;10876;49.038;10.608;2023-03-15T09:14:26;98798.59;;;5.81;100.00
21431;BME280;10876;49.038;10.608;2023-03-15T09:16:53;98806.72;;;5.97;100.00
21431;BME280;10876;49.038;10.608;2023-03-15T09:19:19;98826.28;;;6.53;100.00
21431;BME280;10876;49.038;10.608;2023-03-15T09:21:48;98843.63;;;6.13;100.00
21431;BME280;10876;49.038;10.608;2023-03-15T09:24:15;98856.75;;;5.96;100.00
21431;BME280;10876;49.038;10.608;2023-03-15T09:26:42;98859.94;;;6.13;100.00
21431;BME280;10876;49.038;10.608;2023-03-15T09:29:09;98874.72;;;5.66;100.00
21431;BME280;10876;49.038;10.608;2023-03-15T09:31:35;98876.75;;;6.25;100.00
21431;BME280;10876;49.038;10.608;2023-03-15T09:34:02;98905.44;;;5.31;100.00
21431;BME280;10876;49.038;10.608;2023-03-15T09:36:30;98910.88;;;5.41;100.00
21431;BME280;10876;49.038;10.608;2023-03-15T09:38:58;98919.75;;;6.18;100.00
21431;BME280;10876;49.038;10.608;2023-03-15T09:41:39;98920.50;;;6.89;100.00
21431;BME280;10876;49.038;10.608;2023-03-15T09:44:29;98938.25;;;6.81;100.00
21431;BME280;10876;49.038;10.608;2023-03-15T09:47:07;98947.59;;;6.65;100.00
21431;BME280;10876;49.038;10.608;2023-03-15T09:49:44;98956.34;;;6.51;100.00
21431;BME280;10876;49.038;10.608;2023-03-15T09:52:23;98970.25;;;6.40;100.00
21431;BME280;10876;49.038;10.608;2023-03-15T09:54:56;98965.31;;;7.46;100.00
21431;BME280;10876;49.038;10.608;2023-03-15T09:57:32;98973.38;;;7.27;100.00
21431;BME280;10876;49.038;10.608;2023-03-15T10:00:02;98977.66;;;7.73;100.00
21431;BME280;10876;49.038;10.608;2023-03-15T10:02:31;98990.72;;;7.41;100.00
21431;BME280;10876;49.038;10.608;2023-03-15T10:05:03;99003.25;;;7.42;100.00
21431;BME280;10876;49.038;10.608;2023-03-15T10:07:31;99015.31;;;6.71;100.00
21431;BME280;10876;49.038;10.608;2023-03-15T10:10:00;99014.25;;;6.67;100.00
21431;BME280;10876;49.038;10.608;2023-03-15T10:12:32;99006.34;;;6.71;100.00
21431;BME280;10876;49.038;10.608;2023-03-15T10:15:28;99019.47;;;7.18;100.00
21431;BME280;10876;49.038;10.608;2023-03-15T10:18:10;99017.06;;;6.42;100.00
21431;BME280;10876;49.038;10.608;2023-03-15T10:20:45;99026.88;;;5.66;100.00
21431;BME280;10876;49.038;10.608;2023-03-15T10:23:18;99031.75;;;5.74;100.00
21431;BME280;10876;49.038;10.608;2023-03-15T10:25:49;99039.34;;;5.36;100.00
21431;BME280;10876;49.038;10.608;2023-03-15T10:28:23;99042.56;;;5.18;100.00
21431;BME280;10876;49.038;10.608;2023-03-15T10:30:50;99046.38;;;5.37;100.00
21431;BME280;10876;49.038;10.608;2023-03-15T10:33:24;99045.78;;;5.10;100.00
21431;BME280;10876;49.038;10.608;2023-03-15T10:35:52;99045.28;;;5.23;100.00
21431;BME280;10876;49.038;10.608;2023-03-15T10:38:21;99044.66;;;5.01;100.00
21431;BME280;10876;49.038;10.608;2023-03-15T10:40:51;99042.69;;;4.86;100.00
21431;BME280;10876;49.038;10.608;2023-03-15T10:43:20;99059.22;;;4.74;100.00
21431;BME280;10876;49.038;10.608;2023-03-15T10:45:57;99044.66;;;4.95;100.00
21431;BME280;10876;49.038;10.608;2023-03-15T10:48:25;99053.31;;;4.87;100.00
21431;BME280;10876;49.038;10.608;2023-03-15T10:50:53;99050.63;;;5.03;100.00
21431;BME280;10876;49.038;10.608;2023-03-15T10:53:20;99055.91;;;5.30;100.00
21431;BME280;10876;49.038;10.608;2023-03-15T10:55:57;99049.63;;;5.29;100.00
21431;BME280;10876;49.038;10.608;2023-03-15T10:58:26;99057.56;;;5.41;100.00
21431;BME280;10876;49.038;10.608;2023-03-15T11:00:59;99055.25;;;5.02;100.00
21431;BME280;10876;49.038;10.608;2023-03-15T11:03:26;99062.38;;;5.18;100.00
21431;BME280;10876;49.038;10.608;2023-03-15T11:05:54;99054.88;;;5.67;100.00
21431;BME280;10876;49.038;10.608;2023-03-15T11:08:23;99054.56;;;5.42;100.00
21431;BME280;10876;49.038;10.608;2023-03-15T11:10:57;99052.31;;;5.14;100.00
21431;BME280;10876;49.038;10.608;2023-03-15T11:13:25;99062.34;;;5.08;100.00
21431;BME280;10876;49.038;10.608;2023-03-15T11:15:58;99063.09;;;4.93;100.00
21431;BME280;10876;49.038;10.608;2023-03-15T11:18:32;99058.44;;;4.89;100.00
21431;BME280;10876;49.038;10.608;2023-03-15T11:21:03;99049.81;;;5.02;100.00
21431;BME280;10876;49.038;10.608;2023-03-15T11:23:33;99052.28;;;5.04;100.00
21431;BME280;10876;49.038;10.608;2023-03-15T11:26:02;99043.31;;;5.08;100.00
21431;BME280;10876;49.038;10.608;2023-03-15T11:28:32;99049.63;;;5.19;100.00
21431;BME280;10876;49.038;10.608;2023-03-15T11:31:01;99044.13;;;4.99;100.00
21431;BME280;10876;49.038;10.608;2023-03-15T11:33:40;99049.56;;;5.09;100.00
21431;BME280;10876;49.038;10.608;2023-03-15T11:36:13;99051.59;;;4.71;100.00
21431;BME280;10876;49.038;10.608;2023-03-15T11:38:43;99054.72;;;4.47;100.00
21431;BME280;10876;49.038;10.608;2023-03-15T11:41:19;99060.50;;;4.19;100.00
21431;BME280;10876;49.038;10.608;2023-03-15T11:43:55;99061.56;;;4.13;100.00
21431;BME280;10876;49.038;10.608;2023-03-15T11:46:28;99067.50;;;3.77;100.00
21431;BME280;10876;49.038;10.608;2023-03-15T11:49:00;99068.50;;;3.39;100.00
21431;BME280;10876;49.038;10.608;2023-03-15T11:51:32;99061.06;;;3.02;100.00
21431;BME280;10876;49.038;10.608;2023-03-15T11:54:06;99036.72;;;2.80;100.00
21431;BME280;10876;49.038;10.608;2023-03-15T11:56:47;99030.47;;;3.02;100.00
21431;BME280;10876;49.038;10.608;2023-03-15T11:59:16;99022.28;;;3.19;100.00
21431;BME280;10876;49.038;10.608;2023-03-15T12:01:46;99008.88;;;3.34;100.00
21431;BME280;10876;49.038;10.608;2023-03-15T12:04:41;98995.28;;;3.29;100.00
21431;BME280;10876;49.038;10.608;2023-03-15T12:07:27;98984.16;;;3.25;100.00
21431;BME280;10876;49.038;10.608;2023-03-15T12:09:56;98972.72;;;3.45;100.00
21431;BME280;10876;49.038;10.608;2023-03-15T12:12:37;98953.41;;;3.36;100.00
21431;BME280;10876;49.038;10.608;2023-03-15T12:17:57;98933.34;;;3.65;100.00
21431;BME280;10876;49.038;10.608;2023-03-15T12:20:31;98931.88;;;3.94;100.00
21431;BME280;10876;49.038;10.608;2023-03-15T12:23:13;98945.78;;;3.66;100.00
21431;BME280;10876;49.038;10.608;2023-03-15T12:25:51;98946.41;;;3.73;100.00
21431;BME280;10876;49.038;10.608;2023-03-15T12:28:22;98934.44;;;3.69;100.00
21431;BME280;10876;49.038;10.608;2023-03-15T12:30:54;98913.00;;;4.04;100.00
21431;BME280;10876;49.038;10.608;2023-03-15T12:33:24;98924.31;;;3.96;100.00
21431;BME280;10876;49.038;10.608;2023-03-15T12:35:58;98941.78;;;3.73;100.00
21431;BME280;10876;49.038;10.608;2023-03-15T12:38:31;98930.00;;;3.95;100.00
21431;BME280;10876;49.038;10.608;2023-03-15T12:41:06;98937.19;;;3.74;100.00
21431;BME280;10876;49.038;10.608;2023-03-15T12:43:39;98930.06;;;3.63;100.00
21431;BME280;10876;49.038;10.608;2023-03-15T12:49:29;98926.31;;;3.69;100.00
21431;BME280;10876;49.038;10.608;2023-03-15T12:51:57;98938.13;;;3.57;100.00
21431;BME280;10876;49.038;10.608;2023-03-15T12:54:29;98925.09;;;3.49;100.00
21431;BME280;10876;49.038;10.608;2023-03-15T12:56:58;98924.72;;;3.73;100.00
21431;BME280;10876;49.038;10.608;2023-03-15T12:59:34;98909.75;;;4.07;100.00
21431;BME280;10876;49.038;10.608;2023-03-15T13:02:19;98916.16;;;3.91;100.00
21431;BME280;10876;49.038;10.608;2023-03-15T13:04:48;98920.28;;;3.99;100.00
21431;BME280;10876;49.038;10.608;2023-03-15T13:07:23;98916.25;;;4.06;100.00